createdAt,value
2022-08-31T00:00:02.882Z,3.30
2022-08-31T00:05:06.374Z,3.25
2022-08-31T00:10:14.550Z,3.80
2022-08-31T00:15:20.270Z,3.63
2022-08-31T00:20:33.969Z,4.00
2022-08-31T00:25:38.883Z,4.68
2022-08-31T00:30:43.759Z,3.85
2022-08-31T00:35:46.778Z,4.75
2022-08-31T00:40:49.587Z,3.80
2022-08-31T00:45:53.713Z,3.50
2022-08-31T00:50:57.536Z,3.58
2022-08-31T00:56:00.454Z,3.78
2022-08-31T01:01:06.991Z,3.25
2022-08-31T01:06:10.002Z,3.47
2022-08-31T01:11:14.015Z,3.42
2022-08-31T01:16:22.495Z,3.50
2022-08-31T01:21:29.383Z,3.83
2022-08-31T01:26:33.860Z,3.30
2022-08-31T01:31:39.265Z,3.80
2022-08-31T01:36:44.248Z,3.83
2022-08-31T01:41:48.271Z,3.58
2022-08-31T01:46:51.574Z,3.60
2022-08-31T01:51:55.740Z,3.45
2022-08-31T01:57:01.276Z,3.63
2022-08-31T02:02:04.566Z,3.47
2022-08-31T02:07:07.553Z,3.85
2022-08-31T02:12:12.766Z,3.45
2022-08-31T02:17:15.742Z,3.40
2022-08-31T02:22:18.472Z,3.38
2022-08-31T02:27:22.487Z,3.50
2022-08-31T02:32:25.418Z,3.88
2022-08-31T02:37:28.176Z,3.95
2022-08-31T02:42:53.854Z,3.72
2022-08-31T02:47:55.992Z,4.05
2022-08-31T02:52:58.708Z,3.85
2022-08-31T02:58:03.658Z,3.72
2022-08-31T03:03:06.999Z,3.88
2022-08-31T03:08:09.820Z,4.07
2022-08-31T03:13:13.966Z,4.07
2022-08-31T03:18:18.621Z,4.00
2022-08-31T03:23:21.427Z,3.88
2022-08-31T03:28:25.469Z,4.53
2022-08-31T03:33:28.165Z,3.70
2022-08-31T03:38:31.169Z,4.25
2022-08-31T03:43:36.643Z,4.47
2022-08-31T03:48:39.418Z,3.80
2022-08-31T03:53:43.520Z,4.60
2022-08-31T03:58:47.612Z,4.03
2022-08-31T04:03:50.295Z,3.97
2022-08-31T04:08:52.952Z,3.95
2022-08-31T04:14:00.523Z,3.90
2022-08-31T04:19:04.532Z,3.80
2022-08-31T04:24:11.787Z,4.35
2022-08-31T04:29:15.853Z,4.07
2022-08-31T04:34:18.755Z,3.50
2022-08-31T04:39:22.791Z,3.85
2022-08-31T04:44:28.738Z,3.33
2022-08-31T04:49:31.419Z,3.50
2022-08-31T04:54:34.113Z,3.78
2022-08-31T04:59:38.153Z,3.63
2022-08-31T05:04:40.841Z,3.20
2022-08-31T05:09:43.755Z,3.53
2022-08-31T05:14:48.322Z,3.65
2022-08-31T05:19:52.839Z,3.40
2022-08-31T05:24:55.515Z,3.85
2022-08-31T05:29:59.554Z,3.45
2022-08-31T05:35:02.391Z,2.95
2022-08-31T05:40:06.145Z,9.30
2022-08-31T05:45:11.213Z,3.90
2022-08-31T05:50:14.023Z,3.70
2022-08-31T05:55:19.516Z,3.83
2022-08-31T06:00:25.432Z,4.18
2022-08-31T06:05:29.703Z,3.90
2022-08-31T06:10:32.998Z,3.72
2022-08-31T06:15:42.273Z,3.75
2022-08-31T06:20:45.428Z,3.67
2022-08-31T06:25:48.186Z,3.60
2022-08-31T06:30:55.597Z,3.38
2022-08-31T06:35:58.562Z,3.88
2022-08-31T06:41:01.282Z,3.33
2022-08-31T06:46:05.379Z,3.08
2022-08-31T06:51:08.905Z,3.63
2022-08-31T06:56:20.242Z,3.00
2022-08-31T07:01:35.716Z,2.95
2022-08-31T07:06:41.881Z,2.80
2022-08-31T07:11:46.757Z,2.90
2022-08-31T07:16:51.935Z,2.53
2022-08-31T07:22:34.399Z,2.38
2022-08-31T07:28:01.392Z,2.67
2022-08-31T07:33:17.607Z,2.80
2022-08-31T07:38:40.458Z,2.60
2022-08-31T07:44:20.968Z,2.28
2022-08-31T07:49:48.172Z,2.30
2022-08-31T07:55:22.285Z,2.47
2022-08-31T08:32:55.733Z,1.98
2022-08-31T09:21:21.904Z,1.88
2022-08-31T09:26:27.744Z,1.42
2022-08-31T09:31:37.261Z,1.73
2022-08-31T09:36:42.155Z,1.80
2022-08-31T09:41:45.381Z,1.80
2022-08-31T09:46:53.307Z,1.70
2022-08-31T09:52:18.430Z,1.20
2022-08-31T09:57:50.344Z,1.40
2022-08-31T10:02:57.899Z,1.73
2022-08-31T10:08:04.944Z,1.70
2022-08-31T10:13:16.340Z,1.30
2022-08-31T10:18:27.246Z,1.13
2022-08-31T10:23:35.564Z,1.45
2022-08-31T10:28:45.713Z,1.42
2022-08-31T10:34:13.896Z,1.40
2022-08-31T10:39:25.992Z,1.30
2022-08-31T10:44:37.745Z,1.27
2022-08-31T10:49:40.480Z,1.20
2022-08-31T10:54:51.168Z,1.40
2022-08-31T11:00:02.395Z,1.40
2022-08-31T11:05:19.581Z,1.42
2022-08-31T11:10:27.729Z,1.30
2022-08-31T11:15:55.084Z,1.20
2022-08-31T11:21:25.162Z,0.98
2022-08-31T11:26:50.927Z,1.30
2022-08-31T11:31:57.314Z,1.13
2022-08-31T11:37:04.890Z,0.82
2022-08-31T11:42:13.305Z,0.95
2022-08-31T11:47:37.131Z,1.00
2022-08-31T11:52:48.048Z,0.98
2022-08-31T11:58:25.934Z,0.90
2022-08-31T12:03:51.552Z,0.93
2022-08-31T12:09:10.043Z,1.20
2022-08-31T12:14:22.884Z,0.88
2022-08-31T12:20:01.060Z,0.88
2022-08-31T12:25:14.055Z,1.00
2022-08-31T12:30:21.138Z,0.98
2022-08-31T12:35:26.993Z,0.90
2022-08-31T12:40:32.992Z,0.77
2022-08-31T12:46:08.562Z,0.93
2022-08-31T12:51:22.295Z,0.80
2022-08-31T12:56:31.456Z,0.98
2022-08-31T13:01:42.462Z,0.90
2022-08-31T13:06:48.283Z,0.90
2022-08-31T13:11:53.192Z,0.90
2022-08-31T13:17:00.331Z,1.10
2022-08-31T13:22:06.869Z,0.77
2022-08-31T13:27:16.963Z,0.85
2022-08-31T13:32:32.410Z,0.75
2022-08-31T13:37:42.977Z,1.00
2022-08-31T13:42:50.803Z,1.05
2022-08-31T13:48:02.982Z,0.90
2022-08-31T13:53:26.304Z,0.90
2022-08-31T13:58:32.418Z,0.90
2022-08-31T14:03:44.995Z,1.00
2022-08-31T14:08:53.317Z,1.00
2022-08-31T14:14:05.809Z,1.20
2022-08-31T14:19:10.758Z,0.90
2022-08-31T14:24:16.486Z,1.00
2022-08-31T14:29:19.165Z,0.93
2022-08-31T14:34:27.983Z,0.88
2022-08-31T14:39:37.436Z,1.10
2022-08-31T14:44:42.645Z,0.82
2022-08-31T14:49:45.392Z,1.00
2022-08-31T14:54:49.754Z,0.90
2022-08-31T14:59:56.862Z,0.80
2022-08-31T15:05:05.702Z,1.27
2022-08-31T15:10:12.744Z,1.10
2022-08-31T15:15:20.468Z,1.20
2022-08-31T15:20:23.475Z,1.40
2022-08-31T15:25:28.775Z,1.10
2022-08-31T15:30:33.720Z,1.20
2022-08-31T15:35:41.620Z,1.52
2022-08-31T15:40:45.657Z,1.08
2022-08-31T15:45:48.418Z,1.15
2022-08-31T15:51:01.275Z,1.20
2022-08-31T15:56:08.789Z,1.38
2022-08-31T16:01:16.185Z,1.13
2022-08-31T16:06:21.612Z,1.10
2022-08-31T16:11:27.379Z,1.17
2022-08-31T16:16:34.228Z,1.30
2022-08-31T16:21:40.197Z,1.70
2022-08-31T16:26:45.864Z,1.80
2022-08-31T16:31:49.097Z,1.10
2022-08-31T16:36:53.003Z,1.40
2022-08-31T16:41:57.049Z,1.20
2022-08-31T16:47:00.660Z,1.40
2022-08-31T16:52:06.067Z,2.85
2022-08-31T16:57:10.575Z,1.40
2022-08-31T17:02:15.900Z,1.90
2022-08-31T17:07:19.674Z,1.40
2022-08-31T17:12:26.072Z,3.30
2022-08-31T17:17:30.620Z,5.63
2022-08-31T17:22:36.078Z,0.95
2022-08-31T17:27:40.327Z,1.40
2022-08-31T17:32:45.199Z,1.80
2022-08-31T17:37:49.945Z,1.23
2022-08-31T17:42:59.203Z,1.90
2022-08-31T17:48:02.628Z,2.00
2022-08-31T17:53:05.399Z,1.50
2022-08-31T17:58:09.473Z,1.80
2022-08-31T18:03:12.239Z,1.70
2022-08-31T18:08:15.977Z,2.20
2022-08-31T18:13:21.174Z,2.80
2022-08-31T18:18:27.081Z,2.35
2022-08-31T18:23:29.810Z,2.58
2022-08-31T18:28:33.853Z,2.55
2022-08-31T18:33:37.947Z,2.60
2022-08-31T18:38:40.727Z,2.55
2022-08-31T18:44:02.391Z,2.60
2022-08-31T18:49:12.183Z,2.20
2022-08-31T18:54:16.094Z,2.30
2022-08-31T18:59:21.830Z,2.67
2022-08-31T19:04:24.854Z,2.10
2022-08-31T19:09:27.680Z,2.30
2022-08-31T19:14:34.289Z,5.43
2022-08-31T19:19:37.896Z,2.15
2022-08-31T19:24:41.161Z,2.60
2022-08-31T19:29:45.234Z,2.00
2022-08-31T19:34:49.606Z,1.80
2022-08-31T19:39:52.953Z,1.65
2022-08-31T19:50:21.713Z,2.00
2022-08-31T19:55:24.433Z,1.83
2022-08-31T20:00:29.789Z,1.90
2022-08-31T20:05:32.546Z,2.00
2022-08-31T20:10:35.413Z,2.10
2022-08-31T20:15:44.882Z,3.63
2022-08-31T20:20:50.832Z,2.40
2022-08-31T20:25:53.970Z,2.67
2022-08-31T20:30:59.119Z,2.13
2022-08-31T20:36:02.625Z,2.30
2022-08-31T20:41:05.539Z,1.77
2022-08-31T20:46:09.624Z,2.35
2022-08-31T20:51:16.341Z,2.47
2022-08-31T20:56:24.224Z,2.45
2022-08-31T21:01:29.409Z,2.45
2022-08-31T21:06:32.200Z,2.30
2022-08-31T21:11:37.009Z,1.92
2022-08-31T21:16:41.244Z,2.47
2022-08-31T21:21:47.083Z,2.50
2022-08-31T21:26:59.328Z,2.33
2022-08-31T21:32:05.669Z,3.15
2022-08-31T21:37:09.291Z,2.60
2022-08-31T21:42:12.019Z,2.65
2022-08-31T21:47:16.017Z,5.20
2022-08-31T21:52:18.695Z,2.22
2022-08-31T21:57:22.274Z,2.35
2022-08-31T22:02:26.306Z,2.30
2022-08-31T22:07:29.140Z,2.75
2022-08-31T22:12:32.143Z,2.85
2022-08-31T22:18:01.930Z,2.67
2022-08-31T22:23:00.882Z,3.40
2022-08-31T22:28:05.974Z,2.70
2022-08-31T22:33:10.428Z,2.53
2022-08-31T22:38:14.864Z,3.08
2022-08-31T22:43:18.545Z,3.03
2022-08-31T22:48:22.572Z,2.88
2022-08-31T22:53:25.283Z,3.00
2022-08-31T22:58:28.020Z,3.60
2022-08-31T23:03:32.095Z,3.20
2022-08-31T23:08:34.816Z,3.22
2022-08-31T23:13:51.521Z,3.53
2022-08-31T23:18:57.991Z,3.05
2022-08-31T23:24:02.453Z,3.05
2022-08-31T23:29:09.177Z,3.35
2022-08-31T23:34:13.787Z,3.00
2022-08-31T23:39:17.857Z,2.78
2022-08-31T23:44:21.365Z,3.53
2022-08-31T23:49:25.773Z,3.15
2022-08-31T23:54:29.566Z,3.38
2022-08-31T23:59:34.241Z,3.58
